createdAt,value
2018-03-30T00:02:17.538Z,4.00
2018-03-30T00:04:45.035Z,4.35
2018-03-30T00:07:12.528Z,4.20
2018-03-30T00:09:51.871Z,3.95
2018-03-30T00:12:19.359Z,4.85
2018-03-30T00:14:46.862Z,5.30
2018-03-30T00:17:15.168Z,3.95
2018-03-30T00:19:43.391Z,4.12
2018-03-30T00:22:10.904Z,3.95
2018-03-30T00:24:38.413Z,3.80
2018-03-30T00:27:05.903Z,3.67
2018-03-30T00:29:33.407Z,3.75
2018-03-30T00:32:00.909Z,3.50
2018-03-30T00:34:29.166Z,3.50
2018-03-30T00:36:56.652Z,3.17
2018-03-30T00:39:24.167Z,3.33
2018-03-30T00:41:51.664Z,3.78
2018-03-30T00:44:19.169Z,3.62
2018-03-30T00:46:46.675Z,3.75
2018-03-30T00:49:14.923Z,4.32
2018-03-30T00:51:42.407Z,4.40
2018-03-30T00:54:10.663Z,3.50
2018-03-30T00:56:38.151Z,4.45
2018-03-30T00:59:05.654Z,4.00
2018-03-30T01:01:33.143Z,3.47
2018-03-30T01:04:01.404Z,3.35
2018-03-30T01:06:28.906Z,4.10
2018-03-30T01:08:56.399Z,3.53
2018-03-30T01:11:23.893Z,4.10
2018-03-30T01:13:52.151Z,3.10
2018-03-30T01:16:19.664Z,3.33
2018-03-30T01:18:47.152Z,3.20
2018-03-30T01:21:14.639Z,3.35
2018-03-30T01:23:42.127Z,3.70
2018-03-30T01:26:09.613Z,3.95
2018-03-30T01:28:37.108Z,4.20
2018-03-30T01:31:04.600Z,4.00
2018-03-30T01:33:32.098Z,4.30
2018-03-30T01:35:59.588Z,4.03
2018-03-30T01:38:27.096Z,4.07
2018-03-30T01:40:54.636Z,4.15
2018-03-30T01:43:22.083Z,4.10
2018-03-30T01:45:50.335Z,3.40
2018-03-30T01:48:17.824Z,4.20
2018-03-30T01:50:46.115Z,3.50
2018-03-30T01:53:13.607Z,3.75
2018-03-30T01:55:41.096Z,3.80
2018-03-30T01:58:09.359Z,3.67
2018-03-30T02:00:36.861Z,4.15
2018-03-30T02:03:04.347Z,3.20
2018-03-30T02:05:31.840Z,3.50
2018-03-30T02:07:59.327Z,3.50
2018-03-30T02:10:26.829Z,3.75
2018-03-30T02:12:54.335Z,3.15
2018-03-30T02:15:22.591Z,3.30
2018-03-30T02:17:50.079Z,3.00
2018-03-30T02:20:17.622Z,3.28
2018-03-30T02:22:45.891Z,3.10
2018-03-30T02:25:14.171Z,3.40
2018-03-30T02:27:42.423Z,3.72
2018-03-30T02:30:09.916Z,3.45
2018-03-30T02:32:37.413Z,3.30
2018-03-30T02:35:04.917Z,3.90
2018-03-30T02:37:33.187Z,3.60
2018-03-30T02:40:00.688Z,3.87
2018-03-30T02:42:28.215Z,3.25
2018-03-30T02:44:56.470Z,3.40
2018-03-30T02:47:23.981Z,2.62
2018-03-30T02:49:51.487Z,2.87
2018-03-30T02:52:18.992Z,2.78
2018-03-30T02:54:46.483Z,2.60
2018-03-30T02:57:13.983Z,2.80
2018-03-30T02:59:42.261Z,2.65
2018-03-30T03:02:10.516Z,3.00
2018-03-30T03:04:38.021Z,2.20
2018-03-30T03:07:05.523Z,2.72
2018-03-30T03:09:33.013Z,2.87
2018-03-30T03:12:01.275Z,2.20
2018-03-30T03:14:28.784Z,2.50
2018-03-30T03:16:56.275Z,2.87
2018-03-30T03:19:23.758Z,2.62
2018-03-30T03:21:52.019Z,2.53
2018-03-30T03:24:19.520Z,2.80
2018-03-30T03:26:47.028Z,3.20
2018-03-30T03:29:14.526Z,2.65
2018-03-30T03:31:42.021Z,2.65
2018-03-30T03:34:09.530Z,2.62
2018-03-30T03:36:37.783Z,2.55
2018-03-30T03:39:05.279Z,2.53
2018-03-30T03:41:32.853Z,2.55
2018-03-30T03:44:00.414Z,2.70
2018-03-30T03:46:27.901Z,2.30
2018-03-30T03:48:55.387Z,2.28
2018-03-30T03:51:22.891Z,2.10
2018-03-30T03:53:50.384Z,2.55
2018-03-30T03:56:17.892Z,2.42
2018-03-30T03:58:46.152Z,2.45
2018-03-30T04:01:14.403Z,2.80
2018-03-30T04:03:41.904Z,3.15
2018-03-30T04:06:09.393Z,3.15
2018-03-30T04:08:36.887Z,3.12
2018-03-30T04:11:04.375Z,3.03
2018-03-30T04:13:31.876Z,3.47
2018-03-30T04:15:59.366Z,2.70
2018-03-30T04:18:27.624Z,2.90
2018-03-30T04:20:55.112Z,2.78
2018-03-30T04:23:23.369Z,3.80
2018-03-30T04:25:50.851Z,3.83
2018-03-30T04:28:19.148Z,3.75
2018-03-30T04:30:46.636Z,3.78
2018-03-30T04:33:14.123Z,3.55
2018-03-30T04:35:42.405Z,3.70
2018-03-30T04:38:10.673Z,3.47
2018-03-30T04:40:38.179Z,3.40
2018-03-30T04:43:05.671Z,3.40
2018-03-30T04:45:33.174Z,4.20
2018-03-30T04:48:00.678Z,5.30
2018-03-30T04:50:28.163Z,8.77
2018-03-30T04:52:55.655Z,8.27
2018-03-30T04:55:23.151Z,7.05
2018-03-30T04:57:50.683Z,5.40
2018-03-30T05:00:18.171Z,5.30
2018-03-30T05:02:45.655Z,5.53
2018-03-30T05:05:13.911Z,6.30
2018-03-30T05:07:41.420Z,5.80
2018-03-30T05:10:08.914Z,6.90
2018-03-30T05:12:36.398Z,7.72
2018-03-30T05:15:03.895Z,7.35
2018-03-30T05:17:31.399Z,6.40
2018-03-30T05:19:58.883Z,6.40
2018-03-30T05:22:26.375Z,13.40
2018-03-30T05:24:53.875Z,10.10
2018-03-30T05:27:21.368Z,8.35
2018-03-30T05:29:49.640Z,6.40
2018-03-30T05:32:17.899Z,6.15
2018-03-30T05:34:45.512Z,6.25
2018-03-30T05:37:13.035Z,6.55
2018-03-30T05:39:41.305Z,7.28
2018-03-30T05:42:09.566Z,7.57
2018-03-30T05:44:37.071Z,7.55
2018-03-30T05:47:04.579Z,8.60
2018-03-30T05:49:32.068Z,19.37
2018-03-30T05:52:00.318Z,6.78
2018-03-30T05:54:28.597Z,7.40
2018-03-30T05:56:56.092Z,6.55
2018-03-30T05:59:23.591Z,7.37
2018-03-30T06:01:51.084Z,9.23
2018-03-30T06:04:19.351Z,7.60
2018-03-30T06:06:46.843Z,6.53
2018-03-30T06:09:14.335Z,7.25
2018-03-30T06:11:41.838Z,6.53
2018-03-30T06:14:10.099Z,7.25
2018-03-30T06:16:37.595Z,8.10
2018-03-30T06:19:05.122Z,7.93
2018-03-30T06:21:32.595Z,8.15
2018-03-30T06:24:00.847Z,8.00
2018-03-30T06:26:28.359Z,7.85
2018-03-30T06:28:55.851Z,7.68
2018-03-30T06:31:23.342Z,8.80
2018-03-30T06:33:51.599Z,8.50
2018-03-30T06:36:19.183Z,8.35
2018-03-30T06:38:47.451Z,9.80
2018-03-30T06:41:15.707Z,8.80
2018-03-30T06:43:43.223Z,11.45
2018-03-30T06:46:10.715Z,9.02
2018-03-30T06:48:39.231Z,9.70
2018-03-30T06:51:07.486Z,9.43
2018-03-30T06:53:34.996Z,10.30
2018-03-30T06:56:02.492Z,10.65
2018-03-30T06:58:29.994Z,10.93
2018-03-30T07:00:57.498Z,11.38
2018-03-30T07:03:25.011Z,10.13
2018-03-30T07:05:52.500Z,9.65
2018-03-30T07:08:19.996Z,9.70
2018-03-30T07:10:49.003Z,10.18
2018-03-30T07:13:17.275Z,10.52
2018-03-30T07:15:44.877Z,10.48
2018-03-30T07:18:12.383Z,9.70
2018-03-30T07:20:39.893Z,9.73
2018-03-30T07:23:07.391Z,9.95
2018-03-30T07:25:34.887Z,9.93
2018-03-30T07:28:03.167Z,9.32
2018-03-30T07:30:31.420Z,9.93
2018-03-30T07:32:59.683Z,8.70
2018-03-30T07:35:27.175Z,9.60
2018-03-30T07:37:55.440Z,9.43
2018-03-30T07:40:23.700Z,9.68
2018-03-30T07:42:51.207Z,8.25
2018-03-30T07:45:18.703Z,6.90
2018-03-30T07:47:46.327Z,5.37
2018-03-30T07:50:13.815Z,4.12
2018-03-30T07:52:41.312Z,3.08
2018-03-30T07:55:09.855Z,2.95
2018-03-30T07:57:37.387Z,2.17
2018-03-30T08:00:04.962Z,2.05
2018-03-30T08:02:32.481Z,1.62
2018-03-30T08:04:59.991Z,1.77
2018-03-30T08:07:27.488Z,1.75
2018-03-30T08:09:55.750Z,1.50
2018-03-30T08:12:23.248Z,1.85
2018-03-30T08:14:50.828Z,1.85
2018-03-30T08:17:18.347Z,1.60
2018-03-30T08:19:46.614Z,1.70
2018-03-30T08:22:14.881Z,1.30
2018-03-30T08:24:43.150Z,2.15
2018-03-30T08:27:10.668Z,1.80
2018-03-30T08:29:38.183Z,1.40
2018-03-30T08:32:06.455Z,1.65
2018-03-30T08:34:34.720Z,1.65
2018-03-30T08:37:02.236Z,1.43
2018-03-30T08:39:29.735Z,1.75
2018-03-30T08:41:57.226Z,1.73
2018-03-30T08:44:24.739Z,1.65
2018-03-30T08:46:52.236Z,2.20
2018-03-30T08:49:19.795Z,1.90
2018-03-30T08:51:47.270Z,1.77
2018-03-30T08:54:14.768Z,2.00
2018-03-30T08:56:42.271Z,2.47
2018-03-30T08:59:10.531Z,2.50
2018-03-30T09:01:38.026Z,1.87
2018-03-30T09:04:05.519Z,2.30
2018-03-30T09:06:33.022Z,2.93
2018-03-30T09:09:01.324Z,4.40
2018-03-30T09:11:28.837Z,2.90
2018-03-30T09:13:56.363Z,3.00
2018-03-30T09:16:23.852Z,3.50
2018-03-30T09:18:51.352Z,3.27
2018-03-30T09:21:18.855Z,4.13
2018-03-30T09:23:46.363Z,4.70
2018-03-30T09:26:13.859Z,5.17
2018-03-30T09:28:41.375Z,6.77
2018-03-30T09:31:08.883Z,4.53
2018-03-30T09:33:36.374Z,4.00
2018-03-30T09:36:04.650Z,4.60
2018-03-30T09:38:32.929Z,3.70
2018-03-30T09:41:01.196Z,4.87
2018-03-30T09:43:29.470Z,4.50
2018-03-30T09:45:56.963Z,3.13
2018-03-30T09:48:24.455Z,3.20
2018-03-30T09:50:51.964Z,2.90
2018-03-30T09:53:20.249Z,2.87
2018-03-30T09:55:47.745Z,2.67
2018-03-30T09:58:15.232Z,2.97
2018-03-30T10:00:43.519Z,3.50
2018-03-30T10:03:11.792Z,2.50
2018-03-30T10:05:40.059Z,2.47
2018-03-30T10:08:07.555Z,2.63
2018-03-30T10:10:35.053Z,2.80
2018-03-30T10:13:02.557Z,2.77
2018-03-30T10:15:30.830Z,3.30
2018-03-30T10:17:59.095Z,3.77
2018-03-30T10:20:27.485Z,2.60
2018-03-30T10:22:55.905Z,2.90
2018-03-30T10:25:23.402Z,3.17
2018-03-30T10:27:50.899Z,3.10
2018-03-30T10:30:18.415Z,3.03
2018-03-30T10:32:45.894Z,2.60
2018-03-30T10:35:14.167Z,2.80
2018-03-30T10:37:42.438Z,2.77
2018-03-30T10:40:10.704Z,3.50
2018-03-30T10:42:38.200Z,3.20
2018-03-30T10:45:05.695Z,3.47
2018-03-30T10:47:33.206Z,3.70
2018-03-30T10:50:01.463Z,3.10
2018-03-30T10:52:29.735Z,3.03
2018-03-30T10:54:57.244Z,3.30
2018-03-30T10:57:24.739Z,3.10
2018-03-30T10:59:52.243Z,3.23
2018-03-30T11:02:19.752Z,3.43
2018-03-30T11:04:47.263Z,2.50
2018-03-30T11:07:14.767Z,3.07
2018-03-30T11:09:42.292Z,2.87
2018-03-30T11:12:09.818Z,2.70
2018-03-30T11:14:38.081Z,2.60
2018-03-30T11:17:06.365Z,2.83
2018-03-30T11:19:34.631Z,2.77
2018-03-30T11:22:03.644Z,2.63
2018-03-30T11:24:31.907Z,2.97
2018-03-30T11:27:00.188Z,3.00
2018-03-30T11:29:28.459Z,2.73
2018-03-30T11:31:56.750Z,2.50
2018-03-30T11:34:25.015Z,2.77
2018-03-30T11:36:53.283Z,3.20
2018-03-30T11:39:20.775Z,2.60
2018-03-30T11:41:48.298Z,3.30
2018-03-30T11:44:15.808Z,2.80
2018-03-30T11:46:43.305Z,2.67
2018-03-30T11:49:10.803Z,2.87
2018-03-30T11:51:38.311Z,3.17
2018-03-30T11:54:05.802Z,3.80
2018-03-30T11:56:34.079Z,2.90
2018-03-30T11:59:02.359Z,3.00
2018-03-30T12:01:30.614Z,3.37
2018-03-30T12:03:58.231Z,3.50
2018-03-30T12:06:25.723Z,3.80
2018-03-30T12:08:53.215Z,4.50
2018-03-30T12:11:21.471Z,3.40
2018-03-30T12:13:48.987Z,4.80
2018-03-30T12:16:16.505Z,4.33
2018-03-30T12:18:44.766Z,3.97
2018-03-30T12:21:13.030Z,3.43
2018-03-30T12:23:40.593Z,4.07
2018-03-30T12:26:08.063Z,3.63
2018-03-30T12:28:37.074Z,3.80
2018-03-30T12:31:05.335Z,3.50
2018-03-30T12:33:32.843Z,3.70
2018-03-30T12:36:00.370Z,3.20
2018-03-30T12:38:28.630Z,2.80
2018-03-30T12:40:56.133Z,3.60
2018-03-30T12:43:23.627Z,3.20
2018-03-30T12:45:51.128Z,3.40
2018-03-30T12:48:19.414Z,3.70
2018-03-30T12:50:46.915Z,3.50
2018-03-30T12:53:14.440Z,2.80
2018-03-30T12:55:41.954Z,3.47
2018-03-30T12:58:09.531Z,3.23
2018-03-30T13:00:37.795Z,3.17
2018-03-30T13:03:06.112Z,3.97
2018-03-30T13:05:33.627Z,3.80
2018-03-30T13:08:01.139Z,3.20
2018-03-30T13:10:28.626Z,3.00
2018-03-30T13:12:57.631Z,3.70
2018-03-30T13:15:25.883Z,3.10
2018-03-30T13:17:53.397Z,3.00
2018-03-30T13:20:20.908Z,3.83
2018-03-30T13:22:48.420Z,3.40
2018-03-30T13:25:15.959Z,3.10
2018-03-30T13:27:44.226Z,3.53
2018-03-30T13:30:12.501Z,2.97
2018-03-30T13:32:39.992Z,2.93
2018-03-30T13:35:07.485Z,3.10
2018-03-30T13:37:34.983Z,3.33
2018-03-30T13:40:03.239Z,2.80
2018-03-30T13:42:31.498Z,2.97
2018-03-30T13:44:59.004Z,2.77
2018-03-30T13:47:27.281Z,3.07
2018-03-30T13:49:55.535Z,2.50
2018-03-30T14:05:49.216Z,2.30
2018-03-30T14:08:20.149Z,2.80
2018-03-30T14:10:51.192Z,2.57
2018-03-30T14:13:19.447Z,2.37
2018-03-30T14:15:48.723Z,2.17
2018-03-30T14:18:18.871Z,2.43
2018-03-30T14:20:47.131Z,2.80
2018-03-30T14:23:14.628Z,2.70
2018-03-30T14:25:43.839Z,2.57
2018-03-30T14:28:34.907Z,2.60
2018-03-30T14:31:22.435Z,2.60
2018-03-30T14:33:51.558Z,2.43
2018-03-30T14:36:21.680Z,2.33
2018-03-30T14:39:03.488Z,2.67
2018-03-30T14:41:30.999Z,2.57
2018-03-30T14:44:00.046Z,2.70
2018-03-30T14:46:30.343Z,2.40
2018-03-30T14:48:58.600Z,2.83
2018-03-30T14:51:27.576Z,2.70
2018-03-30T14:53:58.079Z,2.33
2018-03-30T15:10:11.439Z,2.60
2018-03-30T15:12:43.646Z,2.23
2018-03-30T15:15:17.106Z,2.23
2018-03-30T15:17:48.107Z,2.20
2018-03-30T15:20:16.464Z,3.50
2018-03-30T15:23:11.292Z,2.90
2018-03-30T15:25:41.373Z,2.30
2018-03-30T15:28:08.853Z,2.80
2018-03-30T15:30:40.103Z,2.70
2018-03-30T15:33:10.627Z,2.70
2018-03-30T15:35:38.971Z,3.00
2018-03-30T15:38:07.259Z,2.80
2018-03-30T15:40:36.462Z,2.00
2018-03-30T15:43:20.662Z,2.47
2018-03-30T15:45:53.948Z,3.10
2018-03-30T15:48:21.493Z,2.93
2018-03-30T15:50:50.992Z,3.23
2018-03-30T15:53:18.013Z,3.30
2018-03-30T15:55:46.312Z,3.17
2018-03-30T15:58:13.859Z,3.07
2018-03-30T16:00:41.398Z,3.27
2018-03-30T16:03:09.692Z,3.70
2018-03-30T16:05:37.230Z,3.47
2018-03-30T16:08:05.517Z,3.80
2018-03-30T16:10:36.588Z,4.50
2018-03-30T16:13:04.161Z,3.97
2018-03-30T16:15:31.694Z,3.80
2018-03-30T16:17:59.263Z,3.87
2018-03-30T16:20:26.336Z,3.83
2018-03-30T16:22:53.378Z,3.80
2018-03-30T16:25:20.409Z,4.10
2018-03-30T16:27:47.431Z,3.50
2018-03-30T16:30:14.471Z,3.60
2018-03-30T16:32:42.271Z,3.47
2018-03-30T16:35:09.298Z,4.10
2018-03-30T16:37:36.371Z,4.23
2018-03-30T16:40:03.391Z,4.17
2018-03-30T16:42:30.415Z,4.10
2018-03-30T16:44:57.456Z,3.90
2018-03-30T16:47:24.657Z,4.17
2018-03-30T16:49:51.780Z,3.87
2018-03-30T16:52:18.857Z,3.70
2018-03-30T16:54:45.910Z,3.80
2018-03-30T16:57:12.949Z,3.73
2018-03-30T16:59:39.987Z,4.30
2018-03-30T17:02:07.032Z,3.73
2018-03-30T17:04:34.293Z,4.60
2018-03-30T17:07:01.329Z,3.90
2018-03-30T17:09:28.394Z,4.20
2018-03-30T17:11:55.441Z,3.43
2018-03-30T17:14:22.463Z,4.00
2018-03-30T17:16:50.256Z,3.90
2018-03-30T17:19:17.281Z,4.03
2018-03-30T17:21:44.327Z,4.60
2018-03-30T17:24:11.333Z,3.90
2018-03-30T17:26:38.340Z,4.07
2018-03-30T17:29:05.347Z,3.80
2018-03-30T17:31:33.123Z,3.77
2018-03-30T17:34:00.138Z,4.57
2018-03-30T17:36:27.144Z,3.93
2018-03-30T17:38:54.163Z,4.10
2018-03-30T17:41:21.957Z,5.30
2018-03-30T17:43:48.973Z,4.83
2018-03-30T17:46:16.991Z,4.67
2018-03-30T17:48:44.022Z,4.97
2018-03-30T17:51:11.056Z,4.90
2018-03-30T17:53:38.079Z,5.17
2018-03-30T17:56:05.864Z,5.57
2018-03-30T17:58:32.903Z,5.73
2018-03-30T18:00:59.957Z,5.17
2018-03-30T18:03:27.045Z,5.90
2018-03-30T18:05:54.880Z,4.47
2018-03-30T18:08:21.879Z,6.00
2018-03-30T18:10:48.900Z,5.93
2018-03-30T18:13:15.911Z,6.47
2018-03-30T18:15:43.679Z,5.27
2018-03-30T18:18:10.678Z,5.43
2018-03-30T18:20:37.689Z,5.93
2018-03-30T18:23:04.690Z,5.40
2018-03-30T18:25:31.786Z,5.50
2018-03-30T18:27:58.838Z,5.47
2018-03-30T18:30:25.927Z,5.27
2018-03-30T18:32:53.711Z,5.80
2018-03-30T18:35:21.490Z,6.10
2018-03-30T18:37:48.507Z,6.20
2018-03-30T18:40:15.520Z,6.30
2018-03-30T18:42:42.582Z,5.90
2018-03-30T18:45:09.579Z,7.33
2018-03-30T18:47:36.583Z,6.77
2018-03-30T18:50:04.188Z,6.17
2018-03-30T18:52:32.063Z,6.65
2018-03-30T18:54:59.088Z,6.17
2018-03-30T18:57:26.991Z,5.67
2018-03-30T18:59:53.998Z,6.63
2018-03-30T19:02:21.790Z,7.17
2018-03-30T19:04:48.802Z,6.63
2018-03-30T19:07:15.803Z,6.20
2018-03-30T19:09:42.819Z,6.33
2018-03-30T19:12:09.837Z,6.15
2018-03-30T19:14:36.855Z,6.77
2018-03-30T19:17:03.863Z,6.62
2018-03-30T19:19:31.034Z,6.93
2018-03-30T19:21:58.055Z,6.73
2018-03-30T19:24:25.851Z,7.27
2018-03-30T19:26:52.863Z,6.70
2018-03-30T19:29:20.647Z,6.63
2018-03-30T19:31:47.668Z,6.57
2018-03-30T19:34:15.449Z,6.40
2018-03-30T19:36:42.460Z,7.20
2018-03-30T19:39:10.235Z,7.07
2018-03-30T19:41:37.234Z,6.37
2018-03-30T19:44:04.284Z,6.53
2018-03-30T19:46:31.303Z,6.90
2018-03-30T19:48:58.307Z,7.50
2018-03-30T19:51:25.319Z,8.20
2018-03-30T19:53:52.339Z,7.70
2018-03-30T19:56:19.352Z,8.67
2018-03-30T19:58:46.383Z,16.70
2018-03-30T20:01:13.403Z,8.40
2018-03-30T20:03:40.407Z,8.23
2018-03-30T20:06:08.215Z,8.60
2018-03-30T20:08:35.239Z,8.13
2018-03-30T20:11:02.251Z,8.60
2018-03-30T20:13:29.295Z,8.88
2018-03-30T20:15:56.304Z,8.60
2018-03-30T20:18:23.328Z,8.05
2018-03-30T20:20:50.335Z,9.97
2018-03-30T20:23:17.401Z,9.45
2018-03-30T20:25:44.376Z,9.18
2018-03-30T20:28:11.410Z,9.10
2018-03-30T20:30:39.202Z,8.70
2018-03-30T20:33:06.211Z,7.97
2018-03-30T20:35:33.991Z,8.50
2018-03-30T20:38:01.010Z,8.63
2018-03-30T20:40:28.035Z,8.18
2018-03-30T20:42:55.043Z,8.23
2018-03-30T20:45:22.068Z,9.20
2018-03-30T20:47:49.840Z,8.90
2018-03-30T20:50:16.855Z,9.73
2018-03-30T20:52:43.871Z,8.80
2018-03-30T20:55:10.892Z,9.30
2018-03-30T20:57:37.899Z,8.70
2018-03-30T21:00:04.936Z,7.80
2018-03-30T21:02:31.943Z,8.30
2018-03-30T21:04:58.970Z,7.75
2018-03-30T21:07:25.986Z,8.25
2018-03-30T21:09:52.987Z,7.80
2018-03-30T21:12:19.992Z,8.90
2018-03-30T21:14:47.787Z,8.07
2018-03-30T21:17:14.792Z,8.27
2018-03-30T21:19:42.566Z,8.20
2018-03-30T21:22:10.338Z,9.10
2018-03-30T21:24:38.119Z,7.75
2018-03-30T21:27:05.904Z,7.47
2018-03-30T21:29:32.953Z,7.05
2018-03-30T21:31:59.964Z,7.60
2018-03-30T21:34:27.774Z,7.15
2018-03-30T21:36:54.776Z,7.72
2018-03-30T21:39:22.600Z,7.22
2018-03-30T21:41:49.583Z,7.20
2018-03-30T21:44:17.368Z,7.10
2018-03-30T21:46:44.384Z,7.47
2018-03-30T21:49:11.412Z,7.30
2018-03-30T21:51:38.437Z,8.20
2018-03-30T21:54:05.447Z,7.25
2018-03-30T21:56:33.231Z,8.20
2018-03-30T21:59:00.237Z,7.47
2018-03-30T22:01:27.243Z,7.70
2018-03-30T22:03:54.263Z,8.10
2018-03-30T22:06:21.274Z,7.95
2018-03-30T22:08:48.303Z,9.20
2018-03-30T22:11:15.307Z,9.35
2018-03-30T22:13:42.333Z,10.25
2018-03-30T22:16:10.115Z,9.82
2018-03-30T22:18:37.123Z,9.68
2018-03-30T22:21:04.137Z,9.90
2018-03-30T22:23:31.143Z,9.15
2018-03-30T22:25:58.926Z,9.57
2018-03-30T22:28:25.940Z,10.45
2018-03-30T22:30:52.947Z,10.93
2018-03-30T22:33:19.967Z,11.45
2018-03-30T22:35:46.995Z,11.05
2018-03-30T22:38:14.785Z,11.02
2018-03-30T22:40:41.803Z,10.95
2018-03-30T22:43:09.595Z,11.50
2018-03-30T22:45:36.602Z,9.88
2018-03-30T22:48:03.619Z,10.73
2018-03-30T22:50:30.654Z,11.35
2018-03-30T22:52:57.672Z,10.45
2018-03-30T22:55:24.696Z,11.95
2018-03-30T22:57:51.720Z,11.52
2018-03-30T23:00:18.732Z,11.70
2018-03-30T23:02:45.757Z,11.55
2018-03-30T23:05:12.786Z,11.55
2018-03-30T23:07:40.555Z,13.15
2018-03-30T23:10:08.331Z,12.13
2018-03-30T23:12:36.107Z,12.32
2018-03-30T23:15:03.107Z,11.60
2018-03-30T23:17:30.119Z,11.55
2018-03-30T23:19:57.132Z,11.90
2018-03-30T23:22:25.031Z,10.85
2018-03-30T23:24:52.039Z,13.95
2018-03-30T23:27:19.807Z,11.43
2018-03-30T23:29:47.575Z,12.25
2018-03-30T23:32:15.358Z,12.52
2018-03-30T23:34:42.379Z,11.82
2018-03-30T23:37:10.159Z,12.02
2018-03-30T23:39:37.167Z,11.77
2018-03-30T23:42:04.174Z,11.93
2018-03-30T23:44:31.182Z,13.10
2018-03-30T23:46:58.959Z,12.18
2018-03-30T23:49:26.734Z,13.13
2018-03-30T23:51:53.740Z,12.07
2018-03-30T23:54:20.751Z,13.15
2018-03-30T23:56:47.763Z,13.68
2018-03-30T23:59:15.540Z,14.00
